createdAt,value
2022-08-05T04:00:42.387Z,3.70
2022-08-05T04:04:59.123Z,3.70
2022-08-05T04:09:11.539Z,3.67
2022-08-05T04:13:23.283Z,3.80
2022-08-05T04:17:55.910Z,4.03
2022-08-05T04:22:11.807Z,3.90
2022-08-05T04:26:23.923Z,3.80
2022-08-05T04:30:36.338Z,4.10
2022-08-05T04:34:47.876Z,4.65
2022-08-05T04:38:59.455Z,4.18
2022-08-05T04:43:16.633Z,4.07
2022-08-05T04:47:28.511Z,4.32
2022-08-05T04:51:50.266Z,3.85
2022-08-05T04:56:33.839Z,4.43
2022-08-05T05:00:43.955Z,3.88
2022-08-05T05:05:03.002Z,4.07
2022-08-05T05:09:17.561Z,4.47
2022-08-05T05:13:32.341Z,4.28
2022-08-05T05:17:56.359Z,4.20
2022-08-05T05:22:23.943Z,3.92
2022-08-05T05:26:39.694Z,3.65
2022-08-05T05:30:51.540Z,4.00
2022-08-05T05:35:03.242Z,4.03
2022-08-05T05:39:14.871Z,3.88
2022-08-05T05:43:58.588Z,3.80
2022-08-05T05:48:08.419Z,3.92
2022-08-05T05:52:28.446Z,3.83
2022-08-05T05:56:42.971Z,3.78
2022-08-05T06:00:54.515Z,4.20
2022-08-05T06:05:16.459Z,4.07
2022-08-05T06:10:00.200Z,3.88
2022-08-05T06:14:00.852Z,4.13
2022-08-05T06:18:13.686Z,4.13
2022-08-05T06:22:33.785Z,3.95
2022-08-05T06:26:51.227Z,3.67
2022-08-05T06:31:11.289Z,4.10
2022-08-05T06:36:07.517Z,3.90
2022-08-05T06:40:02.511Z,4.18
2022-08-05T06:44:14.446Z,4.05
2022-08-05T06:48:50.328Z,4.85
2022-08-05T06:53:11.230Z,4.50
2022-08-05T06:58:02.785Z,3.42
2022-08-05T07:01:55.038Z,3.80
2022-08-05T07:06:13.977Z,3.85
2022-08-05T07:10:32.539Z,4.22
2022-08-05T07:15:03.443Z,4.10
2022-08-05T07:19:44.242Z,3.90
2022-08-05T07:23:52.591Z,4.10
2022-08-05T07:28:09.720Z,3.90
2022-08-05T07:32:24.252Z,4.10
2022-08-05T07:36:37.946Z,3.63
2022-08-05T07:40:55.705Z,3.70
2022-08-05T07:45:13.215Z,3.67
2022-08-05T07:49:27.675Z,4.35
2022-08-05T07:53:50.438Z,4.03
2022-08-05T07:58:03.900Z,4.15
2022-08-05T08:02:17.596Z,4.30
2022-08-05T08:06:30.821Z,4.07
2022-08-05T08:10:42.448Z,3.95
2022-08-05T08:15:02.715Z,4.07
2022-08-05T08:20:00.485Z,3.85
2022-08-05T08:24:03.164Z,4.13
2022-08-05T08:28:18.834Z,3.92
2022-08-05T08:32:47.836Z,4.18
2022-08-05T08:37:05.013Z,3.88
2022-08-05T08:41:17.201Z,3.88
2022-08-05T08:45:30.470Z,3.78
2022-08-05T08:50:12.984Z,3.50
2022-08-05T08:54:17.174Z,3.80
2022-08-05T08:58:43.643Z,3.97
2022-08-05T09:03:00.501Z,3.70
2022-08-05T09:07:19.301Z,3.63
2022-08-05T09:11:53.770Z,3.80
2022-08-05T09:16:14.561Z,3.80
2022-08-05T09:20:36.342Z,4.10
2022-08-05T09:25:13.808Z,3.70
2022-08-05T09:29:48.070Z,3.80
2022-08-05T09:34:02.821Z,4.63
2022-08-05T09:38:16.773Z,4.20
2022-08-05T09:42:39.959Z,4.20
2022-08-05T09:47:10.449Z,3.90
2022-08-05T09:51:38.102Z,3.70
2022-08-05T09:55:58.487Z,3.60
2022-08-05T10:00:19.607Z,3.92
2022-08-05T10:04:39.473Z,3.40
2022-08-05T10:08:53.821Z,3.70
2022-08-05T10:13:09.665Z,3.80
2022-08-05T10:17:37.177Z,3.50
2022-08-05T10:21:50.360Z,4.90
2022-08-05T10:26:05.291Z,3.45
2022-08-05T10:31:20.957Z,3.70
2022-08-05T10:34:50.914Z,3.63
2022-08-05T10:39:11.785Z,4.43
2022-08-05T10:43:48.866Z,4.00
2022-08-05T10:48:39.509Z,4.05
2022-08-05T10:53:04.636Z,4.53
2022-08-05T10:57:26.415Z,5.05
2022-08-05T11:02:03.763Z,5.78
2022-08-05T11:06:17.605Z,5.55
2022-08-05T11:10:30.794Z,5.72
2022-08-05T11:15:11.962Z,6.75
2022-08-05T11:20:11.055Z,7.38
2022-08-05T11:24:29.748Z,7.85
2022-08-05T11:28:46.359Z,7.80
2022-08-05T11:33:34.535Z,9.13
2022-08-05T11:38:29.840Z,9.68
2022-08-05T11:42:31.442Z,8.70
2022-08-05T11:47:09.218Z,7.18
2022-08-05T11:51:43.987Z,6.95
2022-08-05T11:55:55.295Z,6.75
2022-08-05T12:00:29.208Z,6.97
2022-08-05T12:04:47.028Z,6.43
2022-08-05T12:09:11.043Z,5.88
2022-08-05T12:13:48.954Z,6.93
2022-08-05T12:18:03.999Z,6.80
2022-08-05T12:22:27.789Z,6.63
2022-08-05T12:26:44.044Z,5.97
2022-08-05T12:30:57.502Z,6.32
2022-08-05T12:35:16.846Z,6.35
2022-08-05T12:39:37.186Z,6.75
2022-08-05T12:44:00.615Z,6.10
2022-08-05T12:48:26.998Z,5.20
2022-08-05T12:52:55.432Z,4.35
2022-08-05T12:57:14.329Z,4.20
2022-08-05T13:02:03.286Z,4.35
2022-08-05T13:05:58.782Z,3.72
2022-08-05T13:10:15.003Z,2.80
2022-08-05T13:14:40.305Z,3.20
2022-08-05T13:18:58.768Z,3.35
2022-08-05T13:23:11.380Z,3.17
2022-08-05T13:27:36.341Z,3.08
2022-08-05T13:32:04.503Z,2.88
2022-08-05T13:36:16.851Z,2.88
2022-08-05T13:40:47.939Z,2.92
2022-08-05T13:45:00.225Z,2.50
2022-08-05T13:49:12.802Z,2.53
2022-08-05T13:53:24.441Z,2.63
2022-08-05T13:57:51.246Z,2.35
2022-08-05T14:02:04.853Z,2.88
2022-08-05T14:06:26.489Z,2.80
2022-08-05T14:10:38.881Z,2.60
2022-08-05T14:14:51.389Z,2.80
2022-08-05T14:19:04.374Z,2.70
2022-08-05T14:23:24.806Z,2.70
2022-08-05T14:27:37.648Z,3.10
2022-08-05T14:32:11.260Z,3.05
2022-08-05T14:36:25.319Z,3.38
2022-08-05T14:40:37.895Z,3.28
2022-08-05T14:44:50.265Z,2.90
2022-08-05T14:49:07.521Z,2.95
2022-08-05T14:53:19.654Z,3.20
2022-08-05T14:57:34.066Z,3.30
2022-08-05T15:02:14.968Z,3.80
2022-08-05T15:06:30.205Z,3.47
2022-08-05T15:10:43.337Z,3.70
2022-08-05T15:14:58.701Z,4.05
2022-08-05T15:19:23.459Z,3.55
2022-08-05T15:23:35.647Z,3.60
2022-08-05T15:27:51.975Z,3.47
2022-08-05T15:32:05.929Z,3.17
2022-08-05T15:36:24.586Z,3.50
2022-08-05T15:41:03.339Z,3.22
2022-08-05T15:45:11.308Z,3.47
2022-08-05T15:49:40.845Z,3.58
2022-08-05T15:53:54.439Z,3.58
2022-08-05T15:58:06.000Z,3.25
2022-08-05T16:02:19.779Z,3.70
2022-08-05T16:06:37.799Z,3.20
2022-08-05T16:10:49.334Z,2.70
2022-08-05T16:15:01.967Z,2.40
2022-08-05T16:19:14.587Z,2.58
2022-08-05T16:23:54.658Z,2.65
2022-08-05T16:28:09.740Z,3.42
2022-08-05T16:32:23.151Z,5.35
2022-08-05T16:36:41.999Z,3.92
2022-08-05T16:41:00.500Z,3.58
2022-08-05T16:46:04.753Z,15.27
2022-08-05T16:49:44.234Z,3.90
2022-08-05T16:54:05.770Z,2.92
2022-08-05T16:58:27.683Z,2.35
2022-08-05T17:02:39.560Z,3.50
2022-08-05T17:06:53.367Z,4.30
2022-08-05T17:11:05.467Z,4.85
2022-08-05T17:15:20.713Z,5.53
2022-08-05T17:19:32.233Z,5.50
2022-08-05T17:24:04.525Z,6.18
2022-08-05T17:28:16.958Z,5.75
2022-08-05T17:32:28.687Z,5.68
2022-08-05T17:36:40.586Z,5.80
2022-08-05T17:40:52.364Z,5.38
2022-08-05T17:45:18.187Z,5.35
2022-08-05T17:50:00.510Z,4.90
2022-08-05T17:54:07.544Z,5.10
2022-08-05T17:58:21.591Z,5.18
2022-08-05T18:02:44.345Z,5.15
2022-08-05T18:07:00.511Z,5.15
2022-08-05T18:11:23.995Z,5.63
2022-08-05T18:15:38.637Z,5.57
2022-08-05T18:19:51.387Z,6.03
2022-08-05T18:24:05.743Z,5.88
2022-08-05T18:28:22.046Z,6.30
2022-08-05T18:32:39.882Z,6.70
2022-08-05T18:37:05.053Z,6.78
2022-08-05T18:41:58.005Z,6.97
2022-08-05T18:45:56.438Z,7.20
2022-08-05T18:50:44.962Z,7.32
2022-08-05T18:54:58.366Z,7.60
2022-08-05T18:59:43.652Z,7.40
2022-08-05T19:03:54.933Z,7.25
2022-08-05T19:08:13.539Z,7.70
2022-08-05T19:12:29.098Z,8.13
2022-08-05T19:16:47.142Z,7.32
2022-08-05T19:20:59.692Z,7.88
2022-08-05T19:25:29.618Z,7.22
2022-08-05T19:29:43.608Z,7.50
2022-08-05T19:33:57.018Z,7.57
2022-08-05T19:38:09.473Z,7.47
2022-08-05T19:42:35.760Z,7.10
2022-08-05T19:46:47.804Z,7.13
2022-08-05T19:51:04.938Z,7.30
2022-08-05T19:56:14.043Z,6.80
2022-08-05T20:00:00.535Z,6.18
2022-08-05T20:04:23.057Z,6.50
2022-08-05T20:08:35.493Z,6.75
2022-08-05T20:12:49.186Z,6.95
2022-08-05T20:17:04.728Z,6.63
2022-08-05T20:21:17.853Z,6.55
2022-08-05T20:25:33.853Z,7.50
2022-08-05T20:29:57.849Z,6.88
2022-08-05T20:34:11.548Z,7.47
2022-08-05T20:38:27.381Z,7.18
2022-08-05T20:42:40.408Z,6.90
2022-08-05T20:46:55.173Z,6.82
2022-08-05T20:51:08.266Z,7.93
2022-08-05T20:55:54.714Z,7.20
2022-08-05T21:00:21.131Z,7.13
2022-08-05T21:04:23.391Z,6.72
2022-08-05T21:08:42.346Z,7.13
2022-08-05T21:13:08.791Z,6.18
2022-08-05T21:17:27.139Z,6.35
2022-08-05T21:21:50.333Z,5.78
2022-08-05T21:26:02.258Z,6.20
